Latest Weather Observations for Kalgoorlie-Boulder

IDW60801

Issued at 4:33 pm WST Thursday 18 July 2024 (issued every 10 minutes, with the page automatically refreshed every 10 minutes)

About weather observations | Map of weather stations | Latest weather observations for WA | Other Formats
Station Details ID: 012038 Name: KALGOORLIE-BOULDER AIRPORT Lat: -30.78 Lon: 121.45 Height: 365.3 m
Data from the previous 72 hours. | See also: Recent months at Kalgoorlie-Boulder
Date/Time
WST
Temp
°C
App
Temp
°C
Dew
Point
°C
Rel
Hum
%
Delta-T
°C
Wind Press
QNH
hPa
Press
MSL
hPa
Rain since
9am
mm
Dir  Spd
km/h
Gust
km/h
Spd
kts
Gust
kts
18/04:30pm 13.9 11.1 13.3 96 0.3 NNW 20 28 11 15 1011.4 1011.5 2.0
18/04:00pm 14.0 11.5 13.4 96 0.3 NNW 19 26 10 14 1011.2 1011.3 2.0
18/03:30pm 14.1 11.4 13.5 96 0.3 NNW 20 32 11 17 1010.8 1010.9 1.2
18/03:00pm 14.0 11.5 13.4 96 0.3 NNW 19 24 10 13 1011.0 1011.1 1.2
18/02:43pm 14.2 11.6 13.1 93 0.6 NNW 19 26 10 14 1011.1 1011.2 1.0
18/02:30pm 14.2 11.3 12.8 91 0.8 NW 20 30 11 16 1011.1 1011.2 0.8
18/02:13pm 15.0 10.6 11.8 81 1.8 WNW 26 37 14 20 1011.2 1011.3 0.0
18/02:00pm 16.0 12.2 11.0 72 2.7 NW 22 35 12 19 1010.6 1010.7 0.0
18/01:33pm 17.0 11.7 9.9 63 3.8 NW 28 46 15 25 1010.1 1010.1 0.0
18/01:30pm 17.0 11.3 9.9 63 3.8 WNW 30 46 16 25 1010.2 1010.2 0.0
18/01:00pm 18.1 12.3 8.1 52 5.2 WNW 28 52 15 28 1010.1 1010.1 0.0
18/12:33pm 18.8 12.4 6.9 46 6.1 NW 30 48 16 26 1010.4 1010.4 0.0
18/12:30pm 18.8 12.3 6.6 45 6.2 NW 30 43 16 23 1010.4 1010.4 0.0
18/12:13pm 18.9 12.8 6.4 44 6.3 NW 28 48 15 26 1010.3 1010.3 0.0
18/12:00pm 18.8 12.3 6.3 44 6.3 NW 30 44 16 24 1010.6 1010.7 0.0
18/11:30am 18.9 12.5 5.0 40 6.9 NW 28 44 15 24 1011.0 1011.1 0.0
18/11:00am 17.5 12.2 4.8 43 6.2 NNW 22 32 12 17 1011.9 1011.9 0.0
18/10:30am 15.5 9.9 3.6 45 5.6 NNW 22 32 12 17 1012.4 1012.4 0.0
18/10:00am 15.7 9.6 2.5 41 6.0 NNW 24 35 13 19 1012.8 1012.8 0.0
18/09:30am 15.1 8.9 2.0 41 5.9 NNW 24 33 13 18 1013.1 1013.2 0.0
18/09:00am 14.7 8.0 1.6 41 5.8 NNW 26 35 14 19 1013.3 1013.4 0.0
18/08:30am 14.5 9.0 2.1 43 5.6 NNW 20 28 11 15 1012.9 1013.0 0.0
18/08:00am 14.6 8.7 1.8 42 5.7 NNW 22 33 12 18 1012.7 1012.7 0.0
18/07:30am 14.5 8.6 1.4 41 5.8 NNW 22 32 12 17 1012.6 1012.6 0.0
18/07:00am 14.1 8.7 2.7 46 5.2 NNW 20 35 11 19 1012.6 1012.6 0.0
18/06:30am 14.7 9.1 1.3 40 5.9 NNW 20 32 11 17 1012.6 1012.6 0.0
18/06:00am 14.2 8.6 1.5 42 5.6 NNW 20 26 11 14 1012.6 1012.6 0.0
18/05:30am 14.1 7.8 1.7 43 5.5 NNW 24 33 13 18 1012.5 1012.5 0.0
18/05:00am 14.0 8.1 2.0 44 5.4 N 22 32 12 17 1012.5 1012.5 0.0
18/04:30am 14.3 8.0 1.6 42 5.6 NNW 24 37 13 20 1013.3 1013.4 0.0
18/04:00am 14.3 7.6 1.6 42 5.6 N 26 37 14 20 1013.1 1013.2 0.0
18/03:30am 14.2 7.9 1.8 43 5.5 N 24 32 13 17 1013.3 1013.4 0.0
18/03:00am 14.0 7.8 2.0 44 5.4 N 24 35 13 19 1013.7 1013.8 0.0
18/02:30am 13.8 7.3 2.4 46 5.1 N 26 39 14 21 1013.6 1013.7 0.0
18/02:00am 13.3 7.5 2.5 48 4.8 N 22 32 12 17 1014.3 1014.4 0.0
18/01:30am 12.2 7.5 2.9 53 4.2 N 17 22 9 12 1015.2 1015.3 0.0
18/01:00am 11.9 7.9 2.9 54 4.0 N 13 17 7 9 1015.7 1015.8 0.0
18/12:30am 11.7 7.4 3.0 55 3.9 N 15 20 8 11 1016.2 1016.3 0.0
18/12:00am 10.5 6.9 3.1 60 3.3 N 11 15 6 8 1016.7 1016.8 0.0
 
Date/Time
WST
Temp
°C
App
Temp
°C
Dew
Point
°C
Rel
Hum
%
Delta-T
°C
Wind Press
QNH
hPa
Press
MSL
hPa
Rain since
9am
mm
Dir  Spd
km/h
Gust
km/h
Spd
kts
Gust
kts
17/11:35pm 11.4 7.4 2.9 56 3.8 N 13 19 7 10 1017.3 1017.4 0.0
17/11:30pm 11.6 7.6 3.1 56 3.8 N 13 19 7 10 1017.5 1017.5 0.0
17/11:16pm 11.6 7.3 3.1 56 3.8 N 15 19 8 10 1017.7 1017.8 0.0
17/11:00pm 11.7 7.4 3.2 56 3.8 N 15 20 8 11 1017.9 1018.0 0.0
17/10:30pm 12.3 8.0 3.5 55 4.0 N 15 22 8 12 1018.1 1018.2 0.0
17/10:00pm 12.2 8.0 3.7 56 3.9 N 15 20 8 11 1018.3 1018.4 0.0
17/09:30pm 12.0 8.6 3.8 57 3.7 N 11 15 6 8 1019.0 1019.1 0.0
17/09:00pm 13.0 8.8 3.9 54 4.2 N 15 19 8 10 1019.2 1019.3 0.0
17/08:30pm 13.6 9.4 3.9 52 4.5 N 15 20 8 11 1018.8 1018.9 0.0
17/08:00pm 13.7 10.0 4.3 53 4.4 N 13 17 7 9 1018.7 1018.8 0.0
17/07:30pm 13.6 10.3 4.5 54 4.3 N 11 17 6 9 1018.6 1018.7 0.0
17/07:00pm 13.9 10.5 4.2 52 4.5 NNE 11 15 6 8 1018.5 1018.6 0.0
17/06:30pm 14.2 10.9 4.5 52 4.6 NNE 11 13 6 7 1018.9 1019.0 0.0
17/06:00pm 14.8 12.2 4.2 49 5.0 N 7 9 4 5 1019.0 1019.1 0.0
17/05:30pm 15.6 11.9 4.6 48 5.3 NNE 13 17 7 9 1018.8 1018.9 0.0
17/05:00pm 17.0 12.6 4.7 44 5.9 N 17 24 9 13 1018.9 1019.0 0.0
17/04:30pm 17.7 12.8 5.0 43 6.2 N 20 30 11 16 1018.9 1019.0 0.0
17/04:00pm 18.4 12.6 4.6 40 6.7 N 24 32 13 17 1018.8 1018.9 0.0
17/03:30pm 19.1 14.2 5.2 40 6.9 N 20 32 11 17 1018.4 1018.5 0.0
17/03:00pm 18.8 13.9 5.3 41 6.7 N 20 28 11 15 1018.6 1018.7 0.0
17/02:30pm 18.6 13.5 5.8 43 6.4 N 22 33 12 18 1018.7 1018.8 0.0
17/02:00pm 18.4 13.1 6.6 46 6.0 N 24 33 13 18 1018.8 1018.9 0.0
17/01:30pm 18.2 13.2 6.4 46 6.0 N 22 30 12 16 1019.8 1020.0 0.0
17/01:00pm 17.4 11.9 6.0 47 5.7 N 24 32 13 17 1020.3 1020.4 0.0
17/12:30pm 17.0 12.6 6.5 50 5.3 N 19 28 10 15 1021.4 1021.5 0.0
17/12:00pm 17.1 12.1 6.6 50 5.3 N 22 33 12 18 1022.1 1022.3 0.0
17/11:30am 16.4 11.9 6.8 53 4.8 N 20 30 11 16 1023.0 1023.2 0.0
17/11:00am 15.0 10.6 6.6 57 4.1 N 19 28 10 15 1023.6 1023.7 0.0
17/10:30am 14.7 10.4 6.8 59 3.9 N 19 30 10 16 1024.4 1024.5 0.0
17/10:00am 13.1 9.0 6.2 63 3.3 N 17 26 9 14 1024.9 1025.1 0.0
17/09:30am 11.8 7.1 5.9 67 2.8 N 20 28 11 15 1025.2 1025.4 0.0
17/09:00am 11.1 6.3 5.6 69 2.6 N 20 28 11 15 1024.8 1025.0 0.0
17/08:30am 9.8 5.2 5.6 75 2.0 N 19 24 10 13 1025.1 1025.3 0.0
17/08:00am 8.8 4.0 5.4 79 1.6 N 20 26 11 14 1024.9 1025.1 0.0
17/07:30am 7.8 3.4 4.7 81 1.4 N 17 20 9 11 1024.6 1024.8 0.0
17/07:00am 7.4 3.0 4.5 82 1.3 N 17 24 9 13 1024.4 1024.5 0.0
17/06:30am 7.2 3.1 4.3 82 1.3 NNE 15 24 8 13 1024.4 1024.5 0.0
17/06:00am 7.1 3.0 4.2 82 1.3 NNE 15 20 8 11 1024.2 1024.3 0.0
17/05:30am 7.1 3.4 4.2 82 1.3 NNE 13 17 7 9 1024.3 1024.4 0.0
17/05:00am 7.3 3.6 4.3 81 1.3 NNE 13 17 7 9 1024.2 1024.3 0.0
17/04:30am 6.8 3.8 3.9 82 1.3 NNE 9 15 5 8 1024.3 1024.4 0.0
17/04:00am 7.0 4.0 4.1 82 1.3 NNE 9 13 5 7 1024.3 1024.4 0.0
17/03:30am 7.4 4.4 4.2 80 1.4 NNE 9 13 5 7 1024.3 1024.4 0.0
17/03:00am 7.6 5.0 4.2 79 1.5 NNE 7 9 4 5 1024.6 1024.8 0.0
17/02:30am 7.9 4.9 4.3 78 1.6 NE 9 13 5 7 1024.7 1024.9 0.0
17/02:00am 8.2 5.3 4.6 78 1.6 NE 9 13 5 7 1024.7 1024.9 0.0
17/01:30am 8.2 5.3 4.6 78 1.6 NNE 9 11 5 6 1024.9 1025.1 0.0
17/01:00am 9.1 5.9 4.9 75 1.9 NNE 11 15 6 8 1024.8 1025.0 0.0
17/12:30am 9.5 6.3 5.1 74 2.0 NE 11 15 6 8 1024.9 1025.1 0.0
17/12:00am 9.6 6.1 5.4 75 1.9 NNE 13 17 7 9 1025.5 1025.7 0.0
 
Date/Time
WST
Temp
°C
App
Temp
°C
Dew
Point
°C
Rel
Hum
%
Delta-T
°C
Wind Press
QNH
hPa
Press
MSL
hPa
Rain since
9am
mm
Dir  Spd
km/h
Gust
km/h
Spd
kts
Gust
kts
16/11:30pm 9.8 6.7 5.6 75 2.0 NNE 11 15 6 8 1025.9 1026.1 0.0
16/11:00pm 10.0 7.3 5.8 75 2.0 NNE 9 13 5 7 1026.3 1026.4 0.0
16/10:30pm 10.4 7.0 6.0 74 2.1 NE 13 17 7 9 1026.6 1026.7 0.0
16/10:00pm 10.6 8.3 5.8 72 2.2 NE 7 11 4 6 1026.7 1026.8 0.0
16/09:30pm 11.1 8.8 5.8 70 2.5 ENE 7 9 4 5 1026.9 1027.1 0.0
16/09:00pm 11.9 8.6 6.2 68 2.7 ENE 13 17 7 9 1026.6 1026.7 0.0
16/08:30pm 12.2 8.9 6.3 67 2.8 ENE 13 15 7 8 1026.6 1026.7 0.0
16/08:00pm 12.9 9.2 6.3 64 3.2 ENE 15 20 8 11 1026.7 1026.8 0.0
16/07:30pm 13.0 9.7 6.4 64 3.2 E 13 19 7 10 1026.2 1026.3 0.0
16/07:00pm 13.0 10.0 6.1 63 3.3 E 11 15 6 8 1026.2 1026.3 0.0
16/06:30pm 13.1 10.1 6.2 63 3.3 E 11 15 6 8 1026.1 1026.2 0.0
16/06:00pm 11.9 9.0 6.6 70 2.6 ESE 11 13 6 7 1025.8 1026.0 0.0
16/05:30pm 13.2 10.8 6.8 65 3.1 E 9 11 5 6 1025.5 1025.7 0.0
16/05:00pm 14.9 11.9 6.2 56 4.3 E 11 17 6 9 1025.4 1025.6 0.0
16/04:30pm 16.1 12.7 6.0 51 5.0 ENE 13 17 7 9 1025.4 1025.6 0.0
16/04:00pm 16.6 13.2 6.1 50 5.2 ENE 13 19 7 10 1025.2 1025.4 0.0
16/03:30pm 17.1 14.3 6.9 51 5.2 ENE 11 15 6 8 1025.2 1025.4 0.0
16/03:00pm 17.0 13.5 7.1 52 5.0 E 15 24 8 13 1025.0 1025.2 0.0
16/02:30pm 16.9 13.4 7.0 52 5.0 E 15 24 8 13 1025.1 1025.3 0.0
16/02:00pm 16.7 13.2 7.4 54 4.7 E 15 24 8 13 1025.2 1025.4 0.0
16/01:30pm 15.9 12.3 6.9 55 4.5 ENE 15 20 8 11 1025.8 1026.0 0.0
16/01:00pm 16.3 13.1 7.0 54 4.7 NE 13 22 7 12 1026.2 1026.3 0.0
16/12:30pm 16.4 13.4 7.6 56 4.5 ENE 13 20 7 11 1026.5 1026.6 0.0
16/12:00pm 16.2 13.2 7.9 58 4.2 NE 13 20 7 11 1027.3 1027.5 0.0
16/11:30am 15.9 13.2 9.1 64 3.6 E 13 20 7 11 1027.9 1028.1 0.0
16/11:00am 15.2 12.9 9.1 67 3.2 E 11 17 6 9 1028.6 1028.8 0.0
16/10:30am 14.7 12.8 9.1 69 2.9 ENE 9 13 5 7 1029.1 1029.2 0.0
16/10:00am 14.0 12.1 9.0 72 2.6 NE 9 13 5 7 1029.1 1029.2 0.0
16/09:30am 12.9 10.9 8.8 76 2.1 NE 9 11 5 6 1029.1 1029.2 0.0
16/09:00am 11.6 9.6 8.5 81 1.6 NNE 9 13 5 7 1028.8 1029.0 0.0
16/08:30am 11.0 9.3 8.4 84 1.3 NNE 7 11 4 6 1028.5 1028.7 0.0
16/08:00am 9.4 8.8 8.8 96 0.3 E 2 6 1 3 1028.1 1028.3 0.0
16/07:30am 5.9 3.7 5.5 97 0.2 SSE 6 7 3 4 1027.6 1027.8 0.0
16/07:00am 5.5 3.1 5.1 97 0.2 SE 7 9 4 5 1027.5 1027.7 0.0
16/06:30am 4.6 2.1 3.9 95 0.3 SE 6 7 3 4 1027.4 1027.6 0.0
16/06:00am 4.8 2.1 3.9 94 0.4 SSE 7 9 4 5 1027.2 1027.4 0.0
16/05:30am 5.5 3.0 4.5 93 0.4 SE 7 9 4 5 1026.9 1027.1 0.0
16/05:00am 5.9 3.6 4.7 92 0.5 SE 6 9 3 5 1026.7 1026.8 0.0
16/04:30am 5.7 4.3 3.7 87 0.9 CALM 0 0 0 0 1026.6 1026.7 0.0
16/04:00am 6.6 4.1 4.8 88 0.8 SE 7 9 4 5 1026.5 1026.6 0.0
16/03:30am 6.8 3.5 4.8 87 0.9 SE 11 15 6 8 1026.7 1026.8 0.0
16/03:00am 6.9 3.7 4.9 87 0.9 SSE 11 13 6 7 1026.8 1027.0 0.0
16/02:30am 7.5 4.7 5.1 85 1.1 SE 9 11 5 6 1026.6 1026.7 0.0
16/02:00am 6.4 3.4 4.1 85 1.0 SE 9 11 5 6 1026.6 1026.7 0.0
16/01:30am 7.0 4.1 4.7 85 1.0 SSE 9 11 5 6 1026.6 1026.7 0.0
16/01:00am 6.4 3.7 3.7 83 1.2 SSE 7 9 4 5 1026.4 1026.5 0.0
16/12:30am 9.0 6.6 5.4 78 1.7 ENE 7 11 4 6 1026.3 1026.4 0.0
16/12:00am 8.1 6.2 5.0 81 1.4 NE 4 6 2 3 1026.1 1026.2 0.0
 
Date/Time
WST
Temp
°C
App
Temp
°C
Dew
Point
°C
Rel
Hum
%
Delta-T
°C
Wind Press
QNH
hPa
Press
MSL
hPa
Rain since
9am
mm
Dir  Spd
km/h
Gust
km/h
Spd
kts
Gust
kts
15/11:30pm 7.9 5.6 4.7 80 1.4 ENE 6 7 3 4 1026.2 1026.3 0.0
15/11:00pm 9.2 8.0 4.6 73 2.1 CALM 0 0 0 0 1026.2 1026.3 0.0
15/10:30pm 8.7 7.6 4.9 77 1.7 CALM 0 0 0 0 1026.3 1026.4 0.0
15/10:00pm 8.3 6.4 4.7 78 1.6 SE 4 7 2 4 1026.5 1026.6 0.0
15/09:30pm 9.5 7.0 4.7 72 2.2 SSE 7 9 4 5 1026.8 1027.0 0.0
15/09:00pm 11.2 8.9 4.7 64 3.0 SE 6 7 3 4 1026.7 1026.8 0.0
15/08:30pm 9.5 6.3 5.1 74 2.0 SSE 11 11 6 6 1026.2 1026.3 0.0
15/08:00pm 9.0 6.2 5.0 76 1.8 SE 9 11 5 6 1025.3 1025.5 0.0
15/07:30pm 10.7 8.3 5.3 69 2.5 ESE 7 7 4 4 1025.2 1025.4 0.0
15/07:00pm 11.0 8.8 5.3 68 2.7 SSE 6 7 3 4 1025.0 1025.2 0.0
15/06:30pm 11.1 8.7 5.2 67 2.8 SE 7 9 4 5 1024.7 1024.9 0.0
15/06:00pm 11.1 8.3 5.2 67 2.7 SE 9 11 5 6 1024.5 1024.7 0.0
15/05:30pm 12.6 9.6 5.8 63 3.3 SE 11 15 6 8 1024.2 1024.3 0.0
15/05:00pm 14.3 10.4 5.4 55 4.3 SE 15 19 8 10 1024.0 1024.1 0.0

Other formats

Comma delimited format used in spreadsheet applications
http://www.bom.gov.au/fwo/IDW60801/IDW60801.94637.axf

JavaScript Object Notation format (JSON) in row-major order
http://www.bom.gov.au/fwo/IDW60801/IDW60801.94637.json

Data quality

Most of these data are generated automatically and are frequently updated. Quality checks on data are not normally performed. It is possible for incorrect values to appear. Refer to information at About Latest Weather Observations and please check the disclaimer before using these data.